createdAt,value
2023-04-22T00:00:16.408Z,94.92
2023-04-22T00:01:16.396Z,94.92
2023-04-22T00:02:16.462Z,95.12
2023-04-22T00:03:16.628Z,95.23
2023-04-22T00:04:16.728Z,94.92
2023-04-22T00:05:19.590Z,94.85
2023-04-22T00:06:16.326Z,94.81
2023-04-22T00:07:16.328Z,94.85
2023-04-22T00:08:16.303Z,94.96
2023-04-22T00:09:16.295Z,95.02
2023-04-22T00:10:16.274Z,95.37
2023-04-22T00:11:16.267Z,95.37
2023-04-22T00:12:16.268Z,95.37
2023-04-22T00:13:16.240Z,95.48
2023-04-22T00:14:16.227Z,95.68
2023-04-22T00:15:16.208Z,95.99
2023-04-22T00:16:16.337Z,96.09
2023-04-22T00:17:16.182Z,96.20
2023-04-22T00:18:16.175Z,96.09
2023-04-22T00:19:16.161Z,95.99
2023-04-22T00:20:16.149Z,95.99
2023-04-22T00:21:16.124Z,96.09
2023-04-22T00:22:16.124Z,96.30
2023-04-22T00:23:16.119Z,96.41
2023-04-22T00:24:16.102Z,96.50
2023-04-22T00:25:16.088Z,96.61
2023-04-22T00:26:16.067Z,96.50
2023-04-22T00:27:16.052Z,96.41
2023-04-22T00:28:16.064Z,96.41
2023-04-22T00:29:16.071Z,96.41
2023-04-22T00:30:16.007Z,96.50
2023-04-22T00:31:16.050Z,96.61
2023-04-22T00:32:15.988Z,96.71
2023-04-22T00:33:15.965Z,96.71
2023-04-22T00:34:15.965Z,96.81
2023-04-22T00:35:15.946Z,96.71
2023-04-22T00:36:15.933Z,96.50
2023-04-22T00:37:15.923Z,96.41
2023-04-22T00:38:15.906Z,96.41
2023-04-22T00:39:15.886Z,96.61
2023-04-22T00:40:15.883Z,96.61
2023-04-22T00:41:15.865Z,96.61
2023-04-22T00:42:15.846Z,96.61
2023-04-22T00:43:15.844Z,96.66
2023-04-22T00:44:15.845Z,96.66
2023-04-22T00:45:15.800Z,96.55
2023-04-22T00:46:15.799Z,96.55
2023-04-22T00:47:15.862Z,96.66
2023-04-22T00:48:15.771Z,96.75
2023-04-22T00:49:15.767Z,96.75
2023-04-22T00:50:15.759Z,96.86
2023-04-22T00:51:15.733Z,96.86
2023-04-22T00:52:15.719Z,96.86
2023-04-22T00:53:15.714Z,96.86
2023-04-22T00:54:15.688Z,96.66
2023-04-22T00:55:15.678Z,96.66
2023-04-22T00:56:15.668Z,96.66
2023-04-22T00:57:15.651Z,96.75
2023-04-22T00:58:15.637Z,96.86
2023-04-22T00:59:15.624Z,96.86
2023-04-22T01:00:15.628Z,96.86
2023-04-22T01:01:15.653Z,96.96
2023-04-22T01:02:15.709Z,97.06
2023-04-22T01:03:15.760Z,96.96
2023-04-22T01:04:15.629Z,96.66
2023-04-22T01:05:15.547Z,96.66
2023-04-22T01:06:15.540Z,96.66
2023-04-22T01:07:15.526Z,96.75
2023-04-22T01:08:15.500Z,96.86
2023-04-22T01:09:15.487Z,97.06
2023-04-22T01:10:15.509Z,97.06
2023-04-22T01:11:15.468Z,97.17
2023-04-22T01:12:15.446Z,97.17
2023-04-22T01:13:15.442Z,97.06
2023-04-22T01:14:15.434Z,96.86
2023-04-22T01:15:15.423Z,96.55
2023-04-22T01:16:15.527Z,96.59
2023-04-22T01:17:15.384Z,96.66
2023-04-22T01:18:15.396Z,96.66
2023-04-22T01:19:15.374Z,96.70
2023-04-22T01:20:15.349Z,96.80
2023-04-22T01:21:15.340Z,97.01
2023-04-22T01:22:15.332Z,97.11
2023-04-22T01:23:15.308Z,97.21
2023-04-22T01:24:15.298Z,97.21
2023-04-22T01:25:15.285Z,97.31
2023-04-22T01:26:15.270Z,97.42
2023-04-22T01:27:15.252Z,97.31
2023-04-22T01:28:15.239Z,97.11
2023-04-22T01:29:15.234Z,97.01
2023-04-22T01:30:15.212Z,97.01
2023-04-22T01:31:15.198Z,97.11
2023-04-22T01:32:15.299Z,97.21
2023-04-22T01:33:15.203Z,97.31
2023-04-22T01:34:15.166Z,97.42
2023-04-22T01:35:15.145Z,97.31
2023-04-22T01:36:15.149Z,97.26
2023-04-22T01:37:15.125Z,97.36
2023-04-22T01:38:15.127Z,97.26
2023-04-22T01:39:15.110Z,97.26
2023-04-22T01:40:15.080Z,97.26
2023-04-22T01:41:15.080Z,97.36
2023-04-22T01:42:15.061Z,97.41
2023-04-22T01:43:15.051Z,97.61
2023-04-22T01:44:15.048Z,97.61
2023-04-22T01:45:15.016Z,97.72
2023-04-22T01:46:15.016Z,97.72
2023-04-22T01:47:14.987Z,97.82
2023-04-22T01:48:15.057Z,97.82
2023-04-22T01:49:14.969Z,97.92
2023-04-22T01:50:14.955Z,98.02
2023-04-22T01:51:14.947Z,98.02
2023-04-22T01:52:14.920Z,98.02
2023-04-22T01:53:14.916Z,98.13
2023-04-22T01:54:14.916Z,98.23
2023-04-22T01:55:14.908Z,98.23
2023-04-22T01:56:14.867Z,98.02
2023-04-22T01:57:14.876Z,97.92
2023-04-22T01:58:14.858Z,97.97
2023-04-22T01:59:14.837Z,98.07
2023-04-22T02:00:14.817Z,98.07
2023-04-22T02:01:14.823Z,98.28
2023-04-22T02:02:14.898Z,98.49
2023-04-22T02:03:14.899Z,98.49
2023-04-22T02:04:14.799Z,98.49
2023-04-22T02:05:14.855Z,98.58
2023-04-22T02:06:14.756Z,98.58
2023-04-22T02:07:14.733Z,98.79
2023-04-22T02:08:14.724Z,98.69
2023-04-22T02:09:14.696Z,98.69
2023-04-22T02:10:14.694Z,98.58
2023-04-22T02:11:14.673Z,98.58
2023-04-22T02:12:14.667Z,98.58
2023-04-22T02:13:14.653Z,98.58
2023-04-22T02:14:14.642Z,98.69
2023-04-22T02:15:14.626Z,98.69
2023-04-22T02:16:14.664Z,98.69
2023-04-22T02:17:14.590Z,98.79
2023-04-22T02:18:14.581Z,98.79
2023-04-22T02:19:14.566Z,98.79
2023-04-22T02:20:14.619Z,98.69
2023-04-22T02:21:14.548Z,98.79
2023-04-22T02:22:14.524Z,98.90
2023-04-22T02:23:14.514Z,98.79
2023-04-22T02:24:14.506Z,98.79
2023-04-22T02:25:14.521Z,98.79
2023-04-22T02:26:14.483Z,98.90
2023-04-22T02:27:14.470Z,98.90
2023-04-22T02:28:14.458Z,98.90
2023-04-22T02:29:14.436Z,98.90
2023-04-22T02:30:14.419Z,98.69
2023-04-22T02:31:14.476Z,98.58
2023-04-22T02:32:14.403Z,98.49
2023-04-22T02:33:14.392Z,98.38
2023-04-22T02:34:14.365Z,98.18
2023-04-22T02:35:14.364Z,98.07
2023-04-22T02:36:14.363Z,98.01
2023-04-22T02:37:14.338Z,98.01
2023-04-22T02:38:14.319Z,98.11
2023-04-22T02:39:14.308Z,98.22
2023-04-22T02:40:14.288Z,98.11
2023-04-22T02:41:14.281Z,98.11
2023-04-22T02:42:14.262Z,98.22
2023-04-22T02:43:14.265Z,98.22
2023-04-22T02:44:14.247Z,98.43
2023-04-22T02:45:14.231Z,98.43
2023-04-22T02:46:14.241Z,98.63
2023-04-22T02:47:14.199Z,98.74
2023-04-22T02:48:14.197Z,98.63
2023-04-22T02:49:14.185Z,98.43
2023-04-22T02:50:14.176Z,98.22
2023-04-22T02:51:14.156Z,98.01
2023-04-22T02:52:14.163Z,97.96
2023-04-22T02:53:14.123Z,98.06
2023-04-22T02:54:14.110Z,98.16
2023-04-22T02:55:14.101Z,98.16
2023-04-22T02:56:14.090Z,98.06
2023-04-22T02:57:14.074Z,97.96
2023-04-22T02:58:14.061Z,97.96
2023-04-22T02:59:14.047Z,98.10
2023-04-22T03:00:14.044Z,98.41
2023-04-22T03:01:14.037Z,98.62
2023-04-22T03:02:14.117Z,98.72
2023-04-22T03:03:14.116Z,98.93
2023-04-22T03:04:14.234Z,99.14
2023-04-22T03:05:13.959Z,99.14
2023-04-22T03:06:13.961Z,99.14
2023-04-22T03:07:13.942Z,99.24
2023-04-22T03:08:13.949Z,99.24
2023-04-22T03:09:13.916Z,99.14
2023-04-22T03:10:13.902Z,99.14
2023-04-22T03:11:13.906Z,99.14
2023-04-22T03:12:13.863Z,99.14
2023-04-22T03:13:13.870Z,99.24
2023-04-22T03:14:13.846Z,99.24
2023-04-22T03:15:13.849Z,99.34
2023-04-22T03:16:13.824Z,99.44
2023-04-22T03:17:13.812Z,99.65
2023-04-22T03:18:13.799Z,99.65
2023-04-22T03:19:13.782Z,99.65
2023-04-22T03:20:13.769Z,99.76
2023-04-22T03:21:13.760Z,99.76
2023-04-22T03:22:13.764Z,99.86
2023-04-22T03:23:13.743Z,99.96
2023-04-22T03:24:13.848Z,99.96
2023-04-22T03:25:13.709Z,99.96
2023-04-22T03:26:13.699Z,99.99
2023-04-22T03:27:13.673Z,99.99
2023-04-22T03:28:13.678Z,99.99
2023-04-22T03:29:13.650Z,99.96
2023-04-22T03:30:13.649Z,99.96
2023-04-22T03:31:13.629Z,99.96
2023-04-22T03:32:13.695Z,99.76
2023-04-22T03:33:13.638Z,99.65
2023-04-22T03:34:13.584Z,99.55
2023-04-22T03:35:13.585Z,99.55
2023-04-22T03:36:13.585Z,99.55
2023-04-22T03:37:13.550Z,99.55
2023-04-22T03:38:13.553Z,99.65
2023-04-22T03:39:13.541Z,99.65
2023-04-22T03:40:13.911Z,99.76
2023-04-22T03:41:13.504Z,99.55
2023-04-22T03:42:13.495Z,99.55
2023-04-22T03:43:13.493Z,99.44
2023-04-22T03:44:13.470Z,99.44
2023-04-22T03:45:13.456Z,99.44
2023-04-22T03:46:13.485Z,99.44
2023-04-22T03:47:13.429Z,99.44
2023-04-22T03:48:13.424Z,99.44
2023-04-22T03:49:13.401Z,99.49
2023-04-22T03:50:13.398Z,99.49
2023-04-22T03:51:13.368Z,99.55
2023-04-22T03:52:13.364Z,99.80
2023-04-22T03:53:13.368Z,99.91
2023-04-22T03:54:13.347Z,99.76
2023-04-22T03:55:13.319Z,99.86
2023-04-22T03:56:13.330Z,99.76
2023-04-22T03:57:13.297Z,99.76
2023-04-22T03:58:13.278Z,99.65
2023-04-22T03:59:13.264Z,99.55
2023-04-22T04:00:13.258Z,99.60
2023-04-22T04:01:13.244Z,99.44
2023-04-22T04:02:13.337Z,99.39
2023-04-22T04:03:13.335Z,99.49
2023-04-22T04:04:13.390Z,99.55
2023-04-22T04:05:13.267Z,99.65
2023-04-22T04:06:13.168Z,99.55
2023-04-22T04:07:13.160Z,99.65
2023-04-22T04:08:13.154Z,99.76
2023-04-22T04:09:13.145Z,99.76
2023-04-22T04:10:13.115Z,99.65
2023-04-22T04:11:13.112Z,99.55
2023-04-22T04:12:13.116Z,99.55
2023-04-22T04:13:13.081Z,99.55
2023-04-22T04:14:13.064Z,99.70
2023-04-22T04:15:13.057Z,99.80
2023-04-22T04:16:13.160Z,99.91
2023-04-22T04:17:13.035Z,99.86
2023-04-22T04:18:13.017Z,99.96
2023-04-22T04:19:13.014Z,99.96
2023-04-22T04:20:12.996Z,99.99
2023-04-22T04:21:12.977Z,99.99
2023-04-22T04:22:12.992Z,99.99
2023-04-22T04:23:12.979Z,99.99
2023-04-22T04:24:12.952Z,99.96
2023-04-22T04:25:12.928Z,99.76
2023-04-22T04:26:12.930Z,99.60
2023-04-22T04:27:12.907Z,99.60
2023-04-22T04:28:12.924Z,99.60
2023-04-22T04:29:12.876Z,99.60
2023-04-22T04:30:12.865Z,99.49
2023-04-22T04:31:12.939Z,99.49
2023-04-22T04:32:12.840Z,99.60
2023-04-22T04:33:13.011Z,99.70
2023-04-22T04:34:12.813Z,99.80
2023-04-22T04:35:12.798Z,99.80
2023-04-22T04:36:12.778Z,99.70
2023-04-22T04:37:12.767Z,99.70
2023-04-22T04:38:12.765Z,99.65
2023-04-22T04:39:12.759Z,99.60
2023-04-22T04:40:12.744Z,99.49
2023-04-22T04:41:12.723Z,99.44
2023-04-22T04:42:12.707Z,99.55
2023-04-22T04:43:12.693Z,99.44
2023-04-22T04:44:12.716Z,99.49
2023-04-22T04:45:12.665Z,99.34
2023-04-22T04:46:12.678Z,99.49
2023-04-22T04:47:12.653Z,99.49
2023-04-22T04:48:12.697Z,99.49
2023-04-22T04:49:12.631Z,99.60
2023-04-22T04:50:12.601Z,99.70
2023-04-22T04:51:12.582Z,99.65
2023-04-22T04:52:12.567Z,99.76
2023-04-22T04:53:12.555Z,99.76
2023-04-22T04:54:12.553Z,99.76
2023-04-22T04:55:12.531Z,99.86
2023-04-22T04:56:12.520Z,99.76
2023-04-22T04:57:12.518Z,99.71
2023-04-22T04:58:12.505Z,99.51
2023-04-22T04:59:12.505Z,99.40
2023-04-22T05:00:12.495Z,99.30
2023-04-22T05:01:12.502Z,99.19
2023-04-22T05:02:12.611Z,99.19
2023-04-22T05:03:12.720Z,99.19
2023-04-22T05:04:12.714Z,99.19
2023-04-22T05:05:12.427Z,99.19
2023-04-22T05:06:12.395Z,99.09
2023-04-22T05:07:12.384Z,99.09
2023-04-22T05:08:12.381Z,99.09
2023-04-22T05:09:12.365Z,99.05
2023-04-22T05:10:12.345Z,98.99
2023-04-22T05:11:12.340Z,98.78
2023-04-22T05:12:12.324Z,98.78
2023-04-22T05:13:12.317Z,98.88
2023-04-22T05:14:12.297Z,98.88
2023-04-22T05:15:12.277Z,98.84
2023-04-22T05:16:12.341Z,98.74
2023-04-22T05:17:12.271Z,98.74
2023-04-22T05:18:12.271Z,98.63
2023-04-22T05:19:12.230Z,98.53
2023-04-22T05:20:12.239Z,98.43
2023-04-22T05:21:12.203Z,98.32
2023-04-22T05:22:12.187Z,98.32
2023-04-22T05:23:12.172Z,98.32
2023-04-22T05:24:12.166Z,98.22
2023-04-22T05:25:12.148Z,98.28
2023-04-22T05:26:12.141Z,98.28
2023-04-22T05:27:12.133Z,98.28
2023-04-22T05:28:12.116Z,98.18
2023-04-22T05:29:12.097Z,98.13
2023-04-22T05:30:12.094Z,98.02
2023-04-22T05:31:12.070Z,97.72
2023-04-22T05:32:12.167Z,97.67
2023-04-22T05:33:12.063Z,97.47
2023-04-22T05:34:12.059Z,97.36
2023-04-22T05:35:12.017Z,97.16
2023-04-22T05:36:12.016Z,96.95
2023-04-22T05:37:12.001Z,96.95
2023-04-22T05:38:11.988Z,97.05
2023-04-22T05:39:11.974Z,96.95
2023-04-22T05:40:11.963Z,96.80
2023-04-22T05:41:11.948Z,96.91
2023-04-22T05:42:11.935Z,97.01
2023-04-22T05:43:11.922Z,97.01
2023-04-22T05:44:11.900Z,96.96
2023-04-22T05:45:11.900Z,96.86
2023-04-22T05:46:11.904Z,96.75
2023-04-22T05:47:11.872Z,96.55
2023-04-22T05:48:11.901Z,96.14
2023-04-22T05:49:11.849Z,95.93
2023-04-22T05:50:11.838Z,95.73
2023-04-22T05:51:11.827Z,96.14
2023-04-22T05:52:11.800Z,96.24
2023-04-22T05:53:11.798Z,96.20
2023-04-22T05:54:11.780Z,96.09
2023-04-22T05:55:11.773Z,95.84
2023-04-22T05:56:11.747Z,95.84
2023-04-22T05:57:11.738Z,95.64
2023-04-22T05:58:11.728Z,95.43
2023-04-22T05:59:11.714Z,95.02
2023-04-22T06:00:11.725Z,94.77
2023-04-22T06:01:11.710Z,94.71
2023-04-22T06:02:11.728Z,94.56
2023-04-22T06:03:11.863Z,94.46
2023-04-22T06:04:12.070Z,94.26
2023-04-22T06:05:11.756Z,94.05
2023-04-22T06:06:11.630Z,93.95
2023-04-22T06:07:11.612Z,93.74
2023-04-22T06:08:11.610Z,93.12
2023-04-22T06:09:11.576Z,93.23
2023-04-22T06:10:11.559Z,93.33
2023-04-22T06:11:11.555Z,93.58
2023-04-22T06:12:11.545Z,93.84
2023-04-22T06:13:11.546Z,94.05
2023-04-22T06:14:11.511Z,94.05
2023-04-22T06:15:11.509Z,94.20
2023-04-22T06:16:11.514Z,94.20
2023-04-22T06:17:11.495Z,94.60
2023-04-22T06:18:11.466Z,94.81
2023-04-22T06:19:11.480Z,94.81
2023-04-22T06:20:11.463Z,94.81
2023-04-22T06:21:11.534Z,94.87
2023-04-22T06:22:11.434Z,94.98
2023-04-22T06:23:11.421Z,95.08
2023-04-22T06:24:11.436Z,95.08
2023-04-22T06:25:11.374Z,95.08
2023-04-22T06:26:11.354Z,95.08
2023-04-22T06:27:11.353Z,95.03
2023-04-22T06:28:11.338Z,95.14
2023-04-22T06:29:11.325Z,95.14
2023-04-22T06:30:11.307Z,95.34
2023-04-22T06:31:11.384Z,95.45
2023-04-22T06:32:11.281Z,95.34
2023-04-22T06:33:11.323Z,95.24
2023-04-22T06:34:11.252Z,95.14
2023-04-22T06:35:11.263Z,95.14
2023-04-22T06:36:11.249Z,95.20
2023-04-22T06:37:11.225Z,95.20
2023-04-22T06:38:11.193Z,94.99
2023-04-22T06:39:11.188Z,94.58
2023-04-22T06:40:11.177Z,94.37
2023-04-22T06:41:11.159Z,94.17
2023-04-22T06:42:11.148Z,93.86
2023-04-22T06:43:11.141Z,93.76
2023-04-22T06:44:11.135Z,93.55
2023-04-22T06:45:11.145Z,93.55
2023-04-22T06:46:11.159Z,93.55
2023-04-22T06:47:11.101Z,93.44
2023-04-22T06:48:11.077Z,93.35
2023-04-22T06:49:11.069Z,93.24
2023-04-22T06:50:11.083Z,93.20
2023-04-22T06:51:11.034Z,92.95
2023-04-22T06:52:11.059Z,92.17
2023-04-22T06:53:11.021Z,91.97
2023-04-22T06:54:10.988Z,92.13
2023-04-22T06:55:10.998Z,92.44
2023-04-22T06:56:10.980Z,92.29
2023-04-22T06:57:10.952Z,91.49
2023-04-22T06:58:10.954Z,89.83
2023-04-22T06:59:10.975Z,86.83
2023-04-22T07:00:10.943Z,84.81
2023-04-22T07:01:10.933Z,82.93
2023-04-22T07:02:10.965Z,80.99
2023-04-22T07:03:10.937Z,80.34
2023-04-22T07:04:10.902Z,79.59
2023-04-22T07:05:10.874Z,79.14
2023-04-22T07:06:10.855Z,78.16
2023-04-22T07:07:10.852Z,77.81
2023-04-22T07:08:10.842Z,76.14
2023-04-22T07:09:10.804Z,73.43
2023-04-22T07:10:10.810Z,72.28
2023-04-22T07:11:12.550Z,70.96
2023-04-22T07:12:10.766Z,68.16
2023-04-22T07:13:10.751Z,65.34
2023-04-22T07:14:10.730Z,63.90
2023-04-22T07:15:10.732Z,62.85
2023-04-22T07:16:10.729Z,61.75
2023-04-22T07:17:10.690Z,61.59
2023-04-22T07:18:10.687Z,59.89
2023-04-22T07:19:10.668Z,59.13
2023-04-22T07:20:10.665Z,56.79
2023-04-22T07:21:10.648Z,56.38
2023-04-22T07:22:10.648Z,55.86
2023-04-22T07:23:10.619Z,56.03
2023-04-22T07:24:10.648Z,55.47
2023-04-22T07:25:10.594Z,55.08
2023-04-22T07:26:10.589Z,54.72
2023-04-22T07:27:10.560Z,53.39
2023-04-22T07:28:10.557Z,53.47
2023-04-22T07:29:10.534Z,54.35
2023-04-22T07:30:10.526Z,53.42
2023-04-22T07:31:10.523Z,53.47
2023-04-22T07:32:10.629Z,53.85
2023-04-22T07:33:10.501Z,53.12
2023-04-22T07:34:10.495Z,53.30
2023-04-22T07:35:10.458Z,51.52
2023-04-22T07:36:10.458Z,50.30
2023-04-22T07:37:10.433Z,49.68
2023-04-22T07:38:11.643Z,49.10
2023-04-22T07:39:10.404Z,49.90
2023-04-22T07:40:10.416Z,48.53
2023-04-22T07:41:10.385Z,47.56
2023-04-22T07:42:10.358Z,46.33
2023-04-22T07:43:10.356Z,45.63
2023-04-22T07:44:10.335Z,46.53
2023-04-22T07:45:10.332Z,46.17
2023-04-22T07:46:10.319Z,47.29
2023-04-22T07:47:10.336Z,47.77
2023-04-22T07:48:10.294Z,47.27
2023-04-22T07:49:10.272Z,47.07
2023-04-22T07:50:10.281Z,46.25
2023-04-22T07:51:10.262Z,47.05
2023-04-22T07:52:10.244Z,47.64
2023-04-22T07:53:10.230Z,46.62
2023-04-22T07:54:10.218Z,49.33
2023-04-22T07:55:10.197Z,49.41
2023-04-22T07:56:10.234Z,47.52
2023-04-22T07:57:10.171Z,48.24
2023-04-22T07:58:10.164Z,48.26
2023-04-22T07:59:10.142Z,46.47
2023-04-22T08:00:10.162Z,47.39
2023-04-22T08:01:10.170Z,47.27
2023-04-22T08:02:10.188Z,48.74
2023-04-22T08:03:10.336Z,48.94
2023-04-22T08:04:10.445Z,48.94
2023-04-22T08:05:10.136Z,48.66
2023-04-22T08:06:10.060Z,49.01
2023-04-22T08:07:29.815Z,50.45
2023-04-22T08:08:11.064Z,51.17
2023-04-22T08:09:10.023Z,51.54
2023-04-22T08:10:10.002Z,51.47
2023-04-22T08:11:10.003Z,51.32
2023-04-22T08:12:10.002Z,52.67
2023-04-22T08:13:09.972Z,54.02
2023-04-22T08:14:09.953Z,54.87
2023-04-22T08:15:09.961Z,56.77
2023-04-22T08:16:09.960Z,56.30
2023-04-22T08:17:09.936Z,56.50
2023-04-22T08:18:10.079Z,57.17
2023-04-22T08:19:09.907Z,56.27
2023-04-22T08:20:09.910Z,58.18
2023-04-22T08:21:09.975Z,56.50
2023-04-22T08:22:09.911Z,57.60
2023-04-22T08:23:09.931Z,58.11
2023-04-22T08:24:09.826Z,57.13
2023-04-22T08:25:09.806Z,58.06
2023-04-22T08:26:09.796Z,58.66
2023-04-22T08:27:09.787Z,58.13
2023-04-22T08:28:09.793Z,58.06
2023-04-22T08:29:09.763Z,57.98
2023-04-22T08:30:09.760Z,59.29
2023-04-22T08:31:09.784Z,59.72
2023-04-22T08:32:09.743Z,60.72
2023-04-22T08:33:09.723Z,60.22
2023-04-22T08:34:09.706Z,60.69
2023-04-22T08:35:09.695Z,59.69
2023-04-22T08:36:09.678Z,58.39
2023-04-22T08:37:09.673Z,59.36
2023-04-22T08:38:09.675Z,57.96
2023-04-22T08:39:09.631Z,57.96
2023-04-22T08:40:09.609Z,58.06
2023-04-22T08:41:09.611Z,59.56
2023-04-22T08:42:09.588Z,58.69
2023-04-22T08:43:09.586Z,58.51
2023-04-22T08:44:09.606Z,58.72
2023-04-22T08:45:09.557Z,57.84
2023-04-22T08:46:09.563Z,59.14
2023-04-22T08:47:09.564Z,61.52
2023-04-22T08:48:09.520Z,60.69
2023-04-22T08:49:09.508Z,59.39
2023-04-22T08:50:09.487Z,59.79
2023-04-22T08:51:09.480Z,56.98
2023-04-22T08:52:09.482Z,57.61
2023-04-22T08:53:09.449Z,58.92
2023-04-22T08:54:09.444Z,60.39
2023-04-22T08:55:09.417Z,61.10
2023-04-22T08:56:09.418Z,59.29
2023-04-22T08:57:09.418Z,60.36
2023-04-22T08:58:09.383Z,58.36
2023-04-22T08:59:09.397Z,57.79
2023-04-22T09:00:09.390Z,58.79
2023-04-22T09:01:09.346Z,58.09
2023-04-22T09:02:09.402Z,59.79
2023-04-22T09:03:09.402Z,59.49
2023-04-22T09:04:09.521Z,58.59
2023-04-22T09:05:09.314Z,56.10
2023-04-22T09:06:09.281Z,55.20
2023-04-22T09:07:09.322Z,54.15
2023-04-22T09:08:09.306Z,55.08
2023-04-22T09:09:09.238Z,55.71
2023-04-22T09:10:09.227Z,56.64
2023-04-22T09:11:09.230Z,56.67
2023-04-22T09:12:09.200Z,57.37
2023-04-22T09:13:09.207Z,56.70
2023-04-22T09:14:09.176Z,56.49
2023-04-22T09:15:09.158Z,56.52
2023-04-22T09:16:09.236Z,57.20
2023-04-22T09:17:09.146Z,58.58
2023-04-22T09:18:09.122Z,57.45
2023-04-22T09:19:09.121Z,59.53
2023-04-22T09:20:09.101Z,58.70
2023-04-22T09:21:09.089Z,59.10
2023-04-22T09:22:09.071Z,58.07
2023-04-22T09:23:09.066Z,56.63
2023-04-22T09:24:09.044Z,56.21
2023-04-22T09:25:09.036Z,55.47
2023-04-22T09:26:09.015Z,51.87
2023-04-22T09:27:09.019Z,53.12
2023-04-22T09:28:08.991Z,51.74
2023-04-22T09:29:08.986Z,51.24
2023-04-22T09:30:08.978Z,50.78
2023-04-22T09:31:08.965Z,51.09
2023-04-22T09:32:09.060Z,53.63
2023-04-22T09:33:09.015Z,55.94
2023-04-22T09:34:08.917Z,55.33
2023-04-22T09:35:08.908Z,56.44
2023-04-22T09:36:08.899Z,56.04
2023-04-22T09:37:08.875Z,58.95
2023-04-22T09:38:08.873Z,57.55
2023-04-22T09:39:08.865Z,56.84
2023-04-22T09:40:08.842Z,57.45
2023-04-22T09:41:08.840Z,58.18
2023-04-22T09:42:08.819Z,58.55
2023-04-22T09:43:08.799Z,58.58
2023-04-22T09:44:08.788Z,57.98
2023-04-22T09:45:08.777Z,58.07
2023-04-22T09:46:08.871Z,56.16
2023-04-22T09:47:08.757Z,57.30
2023-04-22T09:48:08.781Z,55.19
2023-04-22T09:49:08.722Z,56.49
2023-04-22T09:50:08.714Z,56.60
2023-04-22T09:51:08.709Z,56.22
2023-04-22T09:52:08.691Z,56.02
2023-04-22T09:53:08.680Z,56.22
2023-04-22T09:54:08.678Z,55.64
2023-04-22T09:55:08.662Z,56.65
2023-04-22T09:56:08.631Z,59.27
2023-04-22T09:57:08.989Z,58.14
2023-04-22T09:58:08.608Z,56.45
2023-04-22T09:59:08.599Z,57.45
2023-04-22T10:00:08.574Z,58.06
2023-04-22T10:01:08.607Z,56.32
2023-04-22T10:02:08.593Z,55.82
2023-04-22T10:03:10.575Z,56.62
2023-04-22T10:04:08.567Z,57.83
2023-04-22T10:05:08.536Z,58.54
2023-04-22T10:06:08.502Z,57.32
2023-04-22T10:07:08.495Z,55.89
2023-04-22T10:08:08.531Z,55.19
2023-04-22T10:09:09.565Z,55.29
2023-04-22T10:10:08.453Z,54.48
2023-04-22T10:11:08.439Z,56.09
2023-04-22T10:12:08.420Z,54.55
2023-04-22T10:13:08.406Z,55.06
2023-04-22T10:14:08.404Z,53.85
2023-04-22T10:15:08.390Z,53.75
2023-04-22T10:16:08.395Z,51.34
2023-04-22T10:17:08.438Z,49.93
2023-04-22T10:18:08.340Z,51.43
2023-04-22T10:19:08.323Z,51.54
2023-04-22T10:20:08.343Z,51.01
2023-04-22T10:21:08.308Z,51.54
2023-04-22T10:22:08.294Z,51.43
2023-04-22T10:23:08.274Z,51.34
2023-04-22T10:24:08.269Z,53.42
2023-04-22T10:25:08.256Z,54.13
2023-04-22T10:26:08.240Z,51.79
2023-04-22T10:27:08.284Z,52.59
2023-04-22T10:28:08.211Z,53.90
2023-04-22T10:29:08.212Z,53.20
2023-04-22T10:30:08.193Z,53.00
2023-04-22T10:31:08.200Z,51.99
2023-04-22T10:32:10.321Z,52.69
2023-04-22T10:33:08.142Z,52.69
2023-04-22T10:34:08.306Z,54.20
2023-04-22T10:35:08.116Z,52.69
2023-04-22T10:36:08.133Z,52.92
2023-04-22T10:37:08.102Z,52.39
2023-04-22T10:38:08.076Z,54.50
2023-04-22T10:39:08.064Z,53.88
2023-04-22T10:40:08.061Z,51.09
2023-04-22T10:41:08.046Z,52.89
2023-04-22T10:42:08.039Z,52.80
2023-04-22T10:43:08.027Z,51.86
2023-04-22T10:44:08.045Z,50.28
2023-04-22T10:45:07.987Z,49.98
2023-04-22T10:46:07.995Z,51.99
2023-04-22T10:47:07.957Z,52.39
2023-04-22T10:48:08.116Z,54.40
2023-04-22T10:49:07.966Z,53.70
2023-04-22T10:50:07.928Z,51.59
2023-04-22T10:51:07.915Z,50.89
2023-04-22T10:52:07.938Z,52.06
2023-04-22T10:53:07.883Z,51.46
2023-04-22T10:54:07.881Z,51.86
2023-04-22T10:55:07.897Z,50.56
2023-04-22T10:56:07.859Z,53.77
2023-04-22T10:57:07.832Z,48.65
2023-04-22T10:58:07.832Z,47.97
2023-04-22T10:59:07.809Z,47.97
2023-04-22T11:00:07.794Z,47.86
2023-04-22T11:01:07.893Z,49.27
2023-04-22T11:02:08.045Z,50.38
2023-04-22T11:03:07.927Z,49.68
2023-04-22T11:04:07.853Z,50.15
2023-04-22T11:05:07.741Z,49.68
2023-04-22T11:06:07.718Z,50.48
2023-04-22T11:07:07.729Z,50.26
2023-04-22T11:08:07.724Z,46.96
2023-04-22T11:09:07.714Z,47.16
2023-04-22T11:10:07.716Z,48.67
2023-04-22T11:11:07.680Z,49.57
2023-04-22T11:12:07.655Z,49.07
2023-04-22T11:13:07.633Z,48.27
2023-04-22T11:14:07.613Z,46.86
2023-04-22T11:15:07.607Z,47.46
2023-04-22T11:16:07.613Z,48.17
2023-04-22T11:17:07.577Z,51.49
2023-04-22T11:18:07.567Z,51.36
2023-04-22T11:19:07.557Z,51.16
2023-04-22T11:20:07.542Z,51.97
2023-04-22T11:21:07.530Z,50.15
2023-04-22T11:22:07.510Z,50.86
2023-04-22T11:23:07.503Z,51.86
2023-04-22T11:24:07.515Z,50.86
2023-04-22T11:25:07.475Z,51.86
2023-04-22T11:26:07.498Z,50.56
2023-04-22T11:27:07.454Z,50.86
2023-04-22T11:28:07.444Z,49.18
2023-04-22T11:29:07.429Z,48.57
2023-04-22T11:30:07.408Z,49.27
2023-04-22T11:31:07.409Z,50.58
2023-04-22T11:32:07.380Z,48.75
2023-04-22T11:33:07.372Z,48.59
2023-04-22T11:34:07.365Z,49.48
2023-04-22T11:35:07.340Z,47.79
2023-04-22T11:36:07.327Z,50.28
2023-04-22T11:37:07.325Z,50.38
2023-04-22T11:38:07.309Z,53.45
2023-04-22T11:39:07.313Z,48.43
2023-04-22T11:40:27.782Z,46.51
2023-04-22T11:41:08.311Z,45.31
2023-04-22T11:42:07.251Z,44.91
2023-04-22T11:43:07.262Z,46.19
2023-04-22T11:44:07.234Z,45.71
2023-04-22T11:45:07.214Z,44.20
2023-04-22T11:46:07.222Z,46.51
2023-04-22T11:47:07.205Z,45.67
2023-04-22T11:48:07.174Z,47.07
2023-04-22T11:49:07.160Z,47.67
2023-04-22T11:50:07.171Z,46.87
2023-04-22T11:51:07.132Z,46.04
2023-04-22T11:52:07.121Z,42.55
2023-04-22T11:53:07.115Z,43.56
2023-04-22T11:54:07.102Z,43.14
2023-04-22T11:55:07.078Z,43.44
2023-04-22T11:56:07.110Z,45.42
2023-04-22T11:57:07.051Z,42.61
2023-04-22T11:58:07.045Z,44.14
2023-04-22T11:59:07.035Z,45.22
2023-04-22T12:00:07.023Z,45.83
2023-04-22T12:01:07.035Z,44.82
2023-04-22T12:02:07.170Z,44.82
2023-04-22T12:03:07.168Z,45.70
2023-04-22T12:04:07.083Z,45.30
2023-04-22T12:05:06.976Z,46.70
2023-04-22T12:06:06.940Z,47.41
2023-04-22T12:07:06.924Z,45.78
2023-04-22T12:08:06.924Z,43.80
2023-04-22T12:09:06.910Z,44.60
2023-04-22T12:10:06.881Z,45.60
2023-04-22T12:11:06.880Z,45.70
2023-04-22T12:12:06.886Z,46.11
2023-04-22T12:13:06.856Z,42.69
2023-04-22T12:14:06.845Z,42.60
2023-04-22T12:15:06.843Z,42.99
2023-04-22T12:16:06.817Z,41.39
2023-04-22T12:17:06.853Z,42.91
2023-04-22T12:18:06.788Z,39.61
2023-04-22T12:19:06.780Z,39.81
2023-04-22T12:20:06.764Z,39.01
2023-04-22T12:21:06.765Z,40.31
2023-04-22T12:22:06.733Z,38.81
2023-04-22T12:23:06.722Z,39.03
2023-04-22T12:24:06.700Z,41.33
2023-04-22T12:25:06.687Z,39.40
2023-04-22T12:26:06.677Z,45.62
2023-04-22T12:27:06.670Z,39.23
2023-04-22T12:28:06.776Z,38.92
2023-04-22T12:29:06.653Z,41.53
2023-04-22T12:30:06.632Z,41.03
2023-04-22T12:31:06.656Z,40.53
2023-04-22T12:32:06.613Z,38.92
2023-04-22T12:33:06.588Z,40.95
2023-04-22T12:34:06.628Z,43.04
2023-04-22T12:35:06.565Z,42.63
2023-04-22T12:36:06.591Z,42.44
2023-04-22T12:37:06.547Z,44.54
2023-04-22T12:38:06.546Z,48.83
2023-04-22T12:39:06.513Z,45.53
2023-04-22T12:40:06.520Z,42.32
2023-04-22T12:41:06.485Z,42.91
2023-04-22T12:42:06.523Z,43.19
2023-04-22T12:43:06.466Z,40.39
2023-04-22T12:44:06.489Z,42.10
2023-04-22T12:45:06.444Z,44.58
2023-04-22T12:46:06.450Z,44.48
2023-04-22T12:47:06.413Z,41.27
2023-04-22T12:48:06.405Z,40.45
2023-04-22T12:49:06.389Z,39.27
2023-04-22T12:50:06.394Z,41.07
2023-04-22T12:51:06.388Z,43.96
2023-04-22T12:52:06.355Z,42.66